createdAt,value
2018-11-13T00:00:21.452Z,95923.45
2018-11-13T00:02:50.885Z,95922.97
2018-11-13T00:05:19.772Z,95919.22
2018-11-13T00:07:48.455Z,95919.45
2018-11-13T00:10:17.127Z,95924.86
2018-11-13T00:12:45.849Z,95921.32
2018-11-13T00:15:14.593Z,95928.98
2018-11-13T00:17:43.355Z,95930.27
2018-11-13T00:20:14.525Z,95938.23
2018-11-13T00:22:43.845Z,95936.94
2018-11-13T00:25:14.718Z,95936.45
2018-11-13T00:27:43.959Z,95940.66
2018-11-13T00:30:15.698Z,95941.70
2018-11-13T00:32:44.830Z,95941.91
2018-11-13T00:35:14.485Z,95941.80
2018-11-13T00:37:43.604Z,95937.31
2018-11-13T00:40:13.182Z,95933.80
2018-11-13T00:42:42.949Z,95934.37
2018-11-13T00:45:11.687Z,95937.79
2018-11-13T00:47:40.418Z,95938.23
2018-11-13T00:50:10.797Z,95932.72
2018-11-13T00:52:39.518Z,95930.49
2018-11-13T00:55:08.454Z,95932.03
2018-11-13T00:57:37.329Z,95926.62
2018-11-13T01:00:14.197Z,95923.59
2018-11-13T01:02:43.103Z,95929.23
2018-11-13T01:05:13.575Z,95917.70
2018-11-13T01:07:43.144Z,95921.50
2018-11-13T01:10:13.410Z,95910.81
2018-11-13T01:12:42.913Z,95912.38
2018-11-13T01:15:13.326Z,95917.53
2018-11-13T01:17:42.716Z,95914.27
2018-11-13T01:20:11.489Z,95916.84
2018-11-13T01:22:40.249Z,95916.94
2018-11-13T01:25:10.145Z,95914.11
2018-11-13T01:27:38.887Z,95921.73
2018-11-13T01:30:10.767Z,95921.50
2018-11-13T01:32:40.584Z,95926.90
2018-11-13T01:35:11.802Z,95926.50
2018-11-13T01:37:40.550Z,95929.80
2018-11-13T01:40:10.787Z,95933.91
2018-11-13T01:42:39.781Z,95939.37
2018-11-13T01:45:10.154Z,95939.77
2018-11-13T01:47:38.976Z,95944.84
2018-11-13T01:50:08.262Z,95944.72
2018-11-13T01:52:37.396Z,95943.19
2018-11-13T01:55:07.733Z,95940.00
2018-11-13T01:57:36.578Z,95936.67
2018-11-13T02:00:16.793Z,95943.82
2018-11-13T02:02:46.822Z,95943.14
2018-11-13T02:05:15.709Z,95942.64
2018-11-13T02:07:44.399Z,95937.06
2018-11-13T02:10:13.056Z,95932.06
2018-11-13T02:12:41.834Z,95928.88
2018-11-13T02:15:10.721Z,95928.72
2018-11-13T02:17:39.548Z,95923.66
2018-11-13T02:20:15.619Z,95917.45
2018-11-13T02:22:44.592Z,95922.73
2018-11-13T02:25:14.721Z,95928.09
2018-11-13T02:27:43.756Z,95929.02
2018-11-13T02:30:14.561Z,95929.02
2018-11-13T02:32:43.801Z,95923.52
2018-11-13T02:35:13.007Z,95927.34
2018-11-13T02:37:41.860Z,95923.90
2018-11-13T02:40:10.692Z,95921.50
2018-11-13T02:42:39.575Z,95928.70
2018-11-13T02:45:10.381Z,95934.81
2018-11-13T02:47:39.264Z,95935.17
2018-11-13T02:50:09.726Z,95940.70
2018-11-13T02:52:39.088Z,95941.81
2018-11-13T02:55:08.245Z,95942.03
2018-11-13T02:57:36.965Z,95943.01
2018-11-13T03:00:14.739Z,95941.43
2018-11-13T03:02:43.484Z,95944.93
2018-11-13T03:05:14.665Z,95944.97
2018-11-13T03:07:43.438Z,95947.14
2018-11-13T03:10:13.831Z,95946.36
2018-11-13T03:12:42.601Z,95942.67
2018-11-13T03:15:12.688Z,95939.98
2018-11-13T03:17:41.473Z,95941.73
2018-11-13T03:20:12.620Z,95944.27
2018-11-13T03:22:41.844Z,95945.84
2018-11-13T03:25:13.136Z,95948.06
2018-11-13T03:27:41.850Z,95946.70
2018-11-13T03:30:16.317Z,95949.16
2018-11-13T03:32:45.378Z,95953.39
2018-11-13T03:35:14.185Z,95947.72
2018-11-13T03:37:43.072Z,95952.98
2018-11-13T03:40:12.625Z,95954.31
2018-11-13T03:42:41.990Z,95958.37
2018-11-13T03:45:11.704Z,95959.62
2018-11-13T03:47:40.440Z,95962.89
2018-11-13T03:50:14.466Z,95961.34
2018-11-13T03:52:43.639Z,95965.08
2018-11-13T03:55:13.025Z,95966.19
2018-11-13T03:57:42.638Z,95961.28
2018-11-13T04:00:13.804Z,95963.12
2018-11-13T04:02:42.713Z,95961.22
2018-11-13T04:05:13.503Z,95958.46
2018-11-13T04:07:43.472Z,95960.65
2018-11-13T04:10:13.409Z,95959.36
2018-11-13T04:12:42.357Z,95963.47
2018-11-13T04:15:12.924Z,95962.06
2018-11-13T04:17:41.692Z,95965.98
2018-11-13T04:20:12.401Z,95973.36
2018-11-13T04:22:41.430Z,95965.93
2018-11-13T04:25:10.262Z,95977.98
2018-11-13T04:27:39.034Z,95979.09
2018-11-13T04:30:12.505Z,95978.66
2018-11-13T04:32:41.704Z,95982.63
2018-11-13T04:35:12.150Z,95983.91
2018-11-13T04:37:40.867Z,95987.69
2018-11-13T04:40:14.037Z,95988.81
2018-11-13T04:42:44.181Z,95988.27
2018-11-13T04:45:14.280Z,95986.12
2018-11-13T04:47:43.876Z,95981.25
2018-11-13T04:50:14.023Z,95985.30
2018-11-13T04:52:43.108Z,95981.08
2018-11-13T04:55:12.365Z,95979.95
2018-11-13T04:57:42.049Z,95982.15
2018-11-13T05:00:13.073Z,95983.02
2018-11-13T05:02:42.477Z,95977.77
2018-11-13T05:05:12.464Z,95984.94
2018-11-13T05:07:41.493Z,95984.58
2018-11-13T05:10:12.267Z,95983.28
2018-11-13T05:12:42.254Z,95991.65
2018-11-13T05:15:11.285Z,95989.61
2018-11-13T05:17:40.925Z,95993.05
2018-11-13T05:20:10.766Z,95998.02
2018-11-13T05:22:39.509Z,96001.13
2018-11-13T05:25:10.563Z,96004.83
2018-11-13T05:27:39.505Z,96006.19
2018-11-13T05:30:11.643Z,96000.13
2018-11-13T05:32:40.474Z,96001.14
2018-11-13T05:35:11.828Z,96003.44
2018-11-13T05:37:41.439Z,96004.67
2018-11-13T05:40:12.541Z,96006.11
2018-11-13T05:42:41.213Z,96010.59
2018-11-13T05:45:11.545Z,96013.54
2018-11-13T05:47:40.346Z,96015.09
2018-11-13T05:50:11.023Z,96017.13
2018-11-13T05:52:40.133Z,96027.17
2018-11-13T05:55:09.345Z,96027.91
2018-11-13T05:57:38.159Z,96024.99
2018-11-13T06:00:14.712Z,96028.30
2018-11-13T06:02:43.449Z,96030.62
2018-11-13T06:05:12.745Z,96030.81
2018-11-13T06:07:41.586Z,96037.52
2018-11-13T06:10:11.361Z,96038.55
2018-11-13T06:12:40.090Z,96040.64
2018-11-13T06:15:09.133Z,96043.95
2018-11-13T06:17:37.753Z,96038.34
2018-11-13T06:20:08.333Z,96044.59
2018-11-13T06:22:37.045Z,96046.15
2018-11-13T06:25:06.763Z,96044.70
2018-11-13T06:27:35.530Z,96038.23
2018-11-13T06:30:08.267Z,96044.83
2018-11-13T06:32:36.983Z,96044.48
2018-11-13T06:35:05.873Z,96047.39
2018-11-13T06:37:34.605Z,96052.27
2018-11-13T06:40:03.416Z,96055.00
2018-11-13T06:42:32.089Z,96052.80
2018-11-13T06:45:00.789Z,96049.14
2018-11-13T06:47:29.500Z,96055.91
2018-11-13T06:49:58.257Z,96057.02
2018-11-13T06:52:27.078Z,96057.22
2018-11-13T06:55:14.740Z,96062.63
2018-11-13T06:57:44.086Z,96052.75
2018-11-13T07:00:12.764Z,96053.14
2018-11-13T07:02:41.390Z,96060.03
2018-11-13T07:05:11.982Z,96059.32
2018-11-13T07:10:40.309Z,96060.49
2018-11-13T07:13:08.981Z,96054.31
2018-11-13T07:15:37.766Z,96054.91
2018-11-13T07:18:06.503Z,96056.50
2018-11-13T07:20:35.849Z,96061.28
2018-11-13T07:23:04.580Z,96054.95
2018-11-13T07:25:33.581Z,96054.09
2018-11-13T07:28:02.384Z,96055.98
2018-11-13T07:30:31.040Z,96054.85
2018-11-13T07:32:59.857Z,96058.45
2018-11-13T07:35:28.572Z,96058.28
2018-11-13T07:37:59.951Z,96059.91
2018-11-13T07:40:28.751Z,96063.89
2018-11-13T07:42:57.538Z,96065.06
2018-11-13T07:45:26.230Z,96064.61
2018-11-13T07:47:55.188Z,96060.36
2018-11-13T07:50:24.230Z,96055.52
2018-11-13T07:52:52.950Z,96056.44
2018-11-13T07:55:21.821Z,96056.61
2018-11-13T07:57:50.497Z,96055.72
2018-11-13T08:00:20.982Z,96056.25
2018-11-13T08:02:50.984Z,96059.34
2018-11-13T08:05:19.678Z,96064.77
2018-11-13T08:07:48.442Z,96060.20
